In Rescue
 
Open Full Screen Window  High Contrast Mode
Wind Gusting 15 knots
09
May 13, 2021 10:03 AM CDT
Weather Information
Wind Direction
  210 °
Wind Speed
  09 kt (10 mph)
Wind Gust
  15 kt (17 mph)
Altimeter
30.33 in
Visibility
10 SM
Temperature
18° C
64° F
Dewpoint
-02° C
28° F
Humidity
26%
1hr Rain Fall
00.00 in.
24hr Rain Fall
00.00 in.
Sky Condition
Clear
VFR

METAR KPNM 131503Z AUTO 21009G15KT 10SM CLR 18/M02 A3033 RMK AO2

FAA Disclaimer: The data displayed is for advisory purposes only and is not to be used for flight planning or operations.